Terminal Aerodrome Forecast
Issued by NWS Jacksonville, FL

Home | Current Version | Previous Version | Text Only | Print | Product List | Glossary On
Versions: 1 2 3 4 5 6 7 8 9 10 11 12 13 14 15 16 17 18 19 20
000
FTUS42 KJAX 031120
TAFJAX
TAF
KJAX 031120Z 0312/0412 24005KT P6SM SCT015 BKN200
      TEMPO 0312/0314 5SM BR SCT007 BKN011
     FM031400 24010KT P6SM VCSH SCT025 BKN050
     FM031900 22012KT P6SM VCTS BKN040CB
     FM040000 23005KT P6SM VCSH SCT040 BKN120=

USA.gov is the U.S. government's official web portal to all federal, state and local government web resources and services.